Cobb County-Mc Collum Field
KRYY : now visible

Airfield :











YOU CAN JOIN US ON...

 
LOGIN :

Register | Disclaimer

   EN    FR    IT 

 









Legend :    VFR   Marginal VFR   IFR   Intensive IFR   Very Intensive IFR
Visi :
Ceiling :
>= 8 km
>= 3000ft
5 to 8 km
1000 to 3000 ft
1500m to 5 km
500 to 1000 ft
800 to 1500m
200 to 500 ft
< 800m
< 200 ft
Symbols :   Thunderstorms  Fog  Heavy snow  Heavy precipitations  Wind > 20 kt






- Airport Elevation : 1040 ft


KRYY - Cobb County-Mc Collum Field

CURRENT METAR :
  • 060450Z AUTO 00000KT 10SM CLR 06/01 A3018 RMK AO2 SLP941 T00560006 PNO $

EXPIRED METARs :
  • 060350Z AUTO 00000KT 10SM CLR 08/01 A3018 RMK AO2 SLP941 T00780006 401720011 PNO $
  • 060250Z 00000KT 10SM CLR 07/01 A3018 RMK AO2 SLP940 6//// T00720006 53008 PNO $

TAF KRYY
Valid from the 06 at 06:00 until the 07 at 06:00 UTC


060536Z 0606/0706 VRB03KT P6SM BKN150
FM061400 VRB03KT P6SM SCT060 OVC100
FM061600 19004KT P6SM VCSH SCT060 BKN100
FM062000 19005KT P6SM -RA OVC060
FM070100 09003KT P6SM OVC025



MET'MAP, your aeronautical weather chart ! - Copyright ORBIFLY December 2007 - Disclaimer

ORBIFLY MET'MAP TEAM :

Programming & Development : Alexandra Zaïnal
Concept & original design : Baudouin d'Aumeries
Assistance for programming : Marc-Olivier Méhu
Technical & hardware support : Manuel Goepfert

Contact : metmap@orbifly.com




SOURCES & CREDITS :

   NOAA       Earth
Advisory